sensor_id;sensor_type;location;lat;lon;timestamp;P1;durP1;ratioP1;P2;durP2;ratioP2
19209;SDS011;9738;51.654;14.238;2022-09-12T00:01:48;2.30;;;2.00;;
19209;SDS011;9738;51.654;14.238;2022-09-12T00:04:14;2.60;;;2.03;;
19209;SDS011;9738;51.654;14.238;2022-09-12T00:06:40;2.20;;;1.97;;
19209;SDS011;9738;51.654;14.238;2022-09-12T00:09:07;2.97;;;2.20;;
19209;SDS011;9738;51.654;14.238;2022-09-12T00:11:36;3.40;;;2.40;;
19209;SDS011;9738;51.654;14.238;2022-09-12T00:14:04;2.63;;;2.27;;
19209;SDS011;9738;51.654;14.238;2022-09-12T00:16:31;2.30;;;2.10;;
19209;SDS011;9738;51.654;14.238;2022-09-12T00:18:59;2.50;;;2.20;;
19209;SDS011;9738;51.654;14.238;2022-09-12T00:21:26;2.10;;;1.90;;
19209;SDS011;9738;51.654;14.238;2022-09-12T00:23:52;2.00;;;1.80;;
19209;SDS011;9738;51.654;14.238;2022-09-12T00:26:18;2.43;;;2.17;;
19209;SDS011;9738;51.654;14.238;2022-09-12T00:28:46;1.67;;;1.57;;
19209;SDS011;9738;51.654;14.238;2022-09-12T00:31:14;1.40;;;1.30;;
19209;SDS011;9738;51.654;14.238;2022-09-12T00:33:41;1.50;;;1.40;;
19209;SDS011;9738;51.654;14.238;2022-09-12T00:36:09;1.30;;;1.20;;
19209;SDS011;9738;51.654;14.238;2022-09-12T00:38:40;2.23;;;1.97;;
19209;SDS011;9738;51.654;14.238;2022-09-12T00:41:09;1.87;;;1.47;;
19209;SDS011;9738;51.654;14.238;2022-09-12T00:46:34;1.93;;;1.43;;
19209;SDS011;9738;51.654;14.238;2022-09-12T00:49:17;2.37;;;1.80;;
19209;SDS011;9738;51.654;14.238;2022-09-12T00:51:57;1.60;;;1.23;;
19209;SDS011;9738;51.654;14.238;2022-09-12T00:54:32;1.40;;;1.30;;
19209;SDS011;9738;51.654;14.238;2022-09-12T00:57:03;1.70;;;1.60;;
19209;SDS011;9738;51.654;14.238;2022-09-12T00:59:37;2.37;;;2.13;;
19209;SDS011;9738;51.654;14.238;2022-09-12T01:02:08;2.30;;;1.93;;
19209;SDS011;9738;51.654;14.238;2022-09-12T01:04:35;3.10;;;1.60;;
19209;SDS011;9738;51.654;14.238;2022-09-12T01:07:03;2.67;;;2.17;;
19209;SDS011;9738;51.654;14.238;2022-09-12T01:09:30;2.00;;;1.73;;
19209;SDS011;9738;51.654;14.238;2022-09-12T01:11:57;1.97;;;1.77;;
19209;SDS011;9738;51.654;14.238;2022-09-12T01:14:23;1.43;;;1.33;;
19209;SDS011;9738;51.654;14.238;2022-09-12T01:16:49;1.70;;;1.60;;
19209;SDS011;9738;51.654;14.238;2022-09-12T01:25:07;1.73;;;1.23;;
19209;SDS011;9738;51.654;14.238;2022-09-12T01:27:48;1.97;;;1.70;;
19209;SDS011;9738;51.654;14.238;2022-09-12T01:30:43;2.27;;;1.97;;
19209;SDS011;9738;51.654;14.238;2022-09-12T01:33:22;2.00;;;1.80;;
19209;SDS011;9738;51.654;14.238;2022-09-12T01:36:21;2.90;;;2.27;;
19209;SDS011;9738;51.654;14.238;2022-09-12T01:38:57;2.90;;;1.83;;
19209;SDS011;9738;51.654;14.238;2022-09-12T01:41:35;2.70;;;2.03;;
19209;SDS011;9738;51.654;14.238;2022-09-12T01:46:53;1.77;;;1.67;;
19209;SDS011;9738;51.654;14.238;2022-09-12T01:49:30;3.67;;;2.37;;
19209;SDS011;9738;51.654;14.238;2022-09-12T01:52:10;2.93;;;2.60;;
19209;SDS011;9738;51.654;14.238;2022-09-12T01:57:44;2.90;;;1.97;;
19209;SDS011;9738;51.654;14.238;2022-09-12T02:00:14;2.27;;;2.07;;
19209;SDS011;9738;51.654;14.238;2022-09-12T02:02:43;2.17;;;1.93;;
19209;SDS011;9738;51.654;14.238;2022-09-12T02:05:17;2.23;;;2.03;;
19209;SDS011;9738;51.654;14.238;2022-09-12T02:07:51;2.93;;;2.07;;
19209;SDS011;9738;51.654;14.238;2022-09-12T02:10:22;2.03;;;1.83;;
19209;SDS011;9738;51.654;14.238;2022-09-12T02:12:55;2.70;;;2.13;;
19209;SDS011;9738;51.654;14.238;2022-09-12T02:15:28;3.07;;;2.00;;
19209;SDS011;9738;51.654;14.238;2022-09-12T02:17:58;2.40;;;1.90;;
19209;SDS011;9738;51.654;14.238;2022-09-12T02:20:29;1.70;;;1.57;;
19209;SDS011;9738;51.654;14.238;2022-09-12T02:23:02;2.33;;;2.07;;
19209;SDS011;9738;51.654;14.238;2022-09-12T02:25:34;1.70;;;1.60;;
19209;SDS011;9738;51.654;14.238;2022-09-12T02:28:05;3.90;;;2.00;;
19209;SDS011;9738;51.654;14.238;2022-09-12T02:30:44;3.10;;;2.50;;
19209;SDS011;9738;51.654;14.238;2022-09-12T02:36:02;2.80;;;2.30;;
19209;SDS011;9738;51.654;14.238;2022-09-12T02:38:42;2.53;;;2.20;;
19209;SDS011;9738;51.654;14.238;2022-09-12T02:41:10;3.77;;;2.10;;
19209;SDS011;9738;51.654;14.238;2022-09-12T02:43:40;2.27;;;2.07;;
19209;SDS011;9738;51.654;14.238;2022-09-12T02:46:06;6.77;;;2.03;;
19209;SDS011;9738;51.654;14.238;2022-09-12T02:48:35;5.67;;;2.30;;
19209;SDS011;9738;51.654;14.238;2022-09-12T02:51:06;2.33;;;1.87;;
19209;SDS011;9738;51.654;14.238;2022-09-12T02:53:32;2.77;;;2.40;;
19209;SDS011;9738;51.654;14.238;2022-09-12T02:55:59;1.50;;;1.40;;
19209;SDS011;9738;51.654;14.238;2022-09-12T02:58:26;1.87;;;1.77;;
19209;SDS011;9738;51.654;14.238;2022-09-12T03:04:07;1.43;;;1.20;;
19209;SDS011;9738;51.654;14.238;2022-09-12T03:09:48;2.37;;;1.93;;
19209;SDS011;9738;51.654;14.238;2022-09-12T03:12:25;2.77;;;1.67;;
19209;SDS011;9738;51.654;14.238;2022-09-12T03:29:29;2.80;;;2.53;;
19209;SDS011;9738;51.654;14.238;2022-09-12T03:31:57;2.87;;;2.13;;
19209;SDS011;9738;51.654;14.238;2022-09-12T03:34:24;2.30;;;1.87;;
19209;SDS011;9738;51.654;14.238;2022-09-12T03:36:51;3.20;;;2.43;;
19209;SDS011;9738;51.654;14.238;2022-09-12T03:39:20;2.97;;;1.97;;
19209;SDS011;9738;51.654;14.238;2022-09-12T03:41:49;3.33;;;2.57;;
19209;SDS011;9738;51.654;14.238;2022-09-12T03:44:16;2.20;;;1.97;;
19209;SDS011;9738;51.654;14.238;2022-09-12T03:46:42;2.70;;;2.13;;
19209;SDS011;9738;51.654;14.238;2022-09-12T03:49:09;2.60;;;1.90;;
19209;SDS011;9738;51.654;14.238;2022-09-12T03:51:35;4.07;;;2.87;;
19209;SDS011;9738;51.654;14.238;2022-09-12T03:54:02;1.97;;;1.77;;
19209;SDS011;9738;51.654;14.238;2022-09-12T03:56:28;2.83;;;1.93;;
19209;SDS011;9738;51.654;14.238;2022-09-12T03:58:54;3.77;;;2.47;;
19209;SDS011;9738;51.654;14.238;2022-09-12T04:01:21;3.40;;;1.60;;
19209;SDS011;9738;51.654;14.238;2022-09-12T04:03:48;3.33;;;2.03;;
19209;SDS011;9738;51.654;14.238;2022-09-12T04:06:15;2.77;;;2.40;;
19209;SDS011;9738;51.654;14.238;2022-09-12T04:08:46;3.57;;;2.87;;
19209;SDS011;9738;51.654;14.238;2022-09-12T04:11:15;2.53;;;2.00;;
19209;SDS011;9738;51.654;14.238;2022-09-12T04:13:42;3.07;;;2.10;;
19209;SDS011;9738;51.654;14.238;2022-09-12T04:16:10;2.80;;;2.30;;
19209;SDS011;9738;51.654;14.238;2022-09-12T04:18:37;3.87;;;2.63;;
19209;SDS011;9738;51.654;14.238;2022-09-12T04:21:04;1.90;;;1.80;;
19209;SDS011;9738;51.654;14.238;2022-09-12T04:23:32;5.60;;;3.10;;
19209;SDS011;9738;51.654;14.238;2022-09-12T04:25:59;5.23;;;2.70;;
19209;SDS011;9738;51.654;14.238;2022-09-12T04:28:27;4.27;;;3.17;;
19209;SDS011;9738;51.654;14.238;2022-09-12T04:30:54;5.03;;;2.83;;
19209;SDS011;9738;51.654;14.238;2022-09-12T04:33:20;3.73;;;2.80;;
19209;SDS011;9738;51.654;14.238;2022-09-12T04:35:46;3.87;;;2.60;;
19209;SDS011;9738;51.654;14.238;2022-09-12T04:38:13;5.90;;;3.27;;
19209;SDS011;9738;51.654;14.238;2022-09-12T04:40:39;2.50;;;2.10;;
19209;SDS011;9738;51.654;14.238;2022-09-12T04:43:04;3.40;;;3.10;;
19209;SDS011;9738;51.654;14.238;2022-09-12T04:45:32;4.40;;;2.73;;
19209;SDS011;9738;51.654;14.238;2022-09-12T04:47:58;4.97;;;3.23;;
19209;SDS011;9738;51.654;14.238;2022-09-12T04:50:24;4.47;;;2.83;;
19209;SDS011;9738;51.654;14.238;2022-09-12T04:52:51;4.93;;;3.37;;
19209;SDS011;9738;51.654;14.238;2022-09-12T04:55:19;4.20;;;2.67;;
19209;SDS011;9738;51.654;14.238;2022-09-12T04:57:45;4.07;;;3.03;;
19209;SDS011;9738;51.654;14.238;2022-09-12T05:00:12;5.33;;;2.70;;
19209;SDS011;9738;51.654;14.238;2022-09-12T05:02:42;3.93;;;3.00;;
19209;SDS011;9738;51.654;14.238;2022-09-12T05:05:08;3.43;;;3.13;;
19209;SDS011;9738;51.654;14.238;2022-09-12T05:07:35;4.93;;;3.07;;
19209;SDS011;9738;51.654;14.238;2022-09-12T05:10:01;3.63;;;2.67;;
19209;SDS011;9738;51.654;14.238;2022-09-12T05:12:29;3.93;;;3.10;;
19209;SDS011;9738;51.654;14.238;2022-09-12T05:14:56;5.43;;;3.27;;
19209;SDS011;9738;51.654;14.238;2022-09-12T05:17:22;4.17;;;2.60;;
19209;SDS011;9738;51.654;14.238;2022-09-12T05:19:48;3.47;;;3.03;;
19209;SDS011;9738;51.654;14.238;2022-09-12T05:22:14;4.30;;;2.90;;
19209;SDS011;9738;51.654;14.238;2022-09-12T05:24:40;6.47;;;3.67;;
19209;SDS011;9738;51.654;14.238;2022-09-12T05:27:08;3.73;;;3.00;;
19209;SDS011;9738;51.654;14.238;2022-09-12T05:29:34;5.40;;;3.57;;
19209;SDS011;9738;51.654;14.238;2022-09-12T05:32:00;3.50;;;3.13;;
19209;SDS011;9738;51.654;14.238;2022-09-12T05:34:26;4.53;;;3.07;;
19209;SDS011;9738;51.654;14.238;2022-09-12T05:36:53;4.57;;;2.87;;
19209;SDS011;9738;51.654;14.238;2022-09-12T05:39:18;2.97;;;2.50;;
19209;SDS011;9738;51.654;14.238;2022-09-12T05:41:44;4.33;;;3.80;;
19209;SDS011;9738;51.654;14.238;2022-09-12T05:44:11;4.03;;;3.60;;
19209;SDS011;9738;51.654;14.238;2022-09-12T05:46:40;3.40;;;3.10;;
19209;SDS011;9738;51.654;14.238;2022-09-12T05:49:08;5.17;;;3.47;;
19209;SDS011;9738;51.654;14.238;2022-09-12T05:51:37;5.67;;;4.03;;
19209;SDS011;9738;51.654;14.238;2022-09-12T05:54:06;6.27;;;2.90;;
19209;SDS011;9738;51.654;14.238;2022-09-12T05:56:36;3.80;;;3.23;;
19209;SDS011;9738;51.654;14.238;2022-09-12T05:59:05;5.20;;;3.57;;
19209;SDS011;9738;51.654;14.238;2022-09-12T06:01:36;4.60;;;3.60;;
19209;SDS011;9738;51.654;14.238;2022-09-12T06:04:03;7.53;;;4.47;;
19209;SDS011;9738;51.654;14.238;2022-09-12T06:06:31;5.50;;;4.10;;
19209;SDS011;9738;51.654;14.238;2022-09-12T06:09:01;5.17;;;4.00;;
19209;SDS011;9738;51.654;14.238;2022-09-12T06:11:29;4.10;;;3.40;;
19209;SDS011;9738;51.654;14.238;2022-09-12T06:13:57;5.63;;;3.80;;
19209;SDS011;9738;51.654;14.238;2022-09-12T06:16:25;5.53;;;4.10;;
19209;SDS011;9738;51.654;14.238;2022-09-12T06:18:53;6.13;;;4.93;;
19209;SDS011;9738;51.654;14.238;2022-09-12T06:21:21;8.67;;;4.63;;
19209;SDS011;9738;51.654;14.238;2022-09-12T06:23:48;6.50;;;4.23;;
19209;SDS011;9738;51.654;14.238;2022-09-12T06:26:14;9.03;;;5.83;;
19209;SDS011;9738;51.654;14.238;2022-09-12T06:28:43;8.07;;;6.53;;
19209;SDS011;9738;51.654;14.238;2022-09-12T06:31:13;6.77;;;5.33;;
19209;SDS011;9738;51.654;14.238;2022-09-12T06:33:41;8.40;;;5.87;;
19209;SDS011;9738;51.654;14.238;2022-09-12T06:36:13;8.70;;;5.40;;
19209;SDS011;9738;51.654;14.238;2022-09-12T06:38:40;6.97;;;5.40;;
19209;SDS011;9738;51.654;14.238;2022-09-12T06:41:07;7.40;;;5.20;;
19209;SDS011;9738;51.654;14.238;2022-09-12T06:43:36;7.30;;;5.67;;
19209;SDS011;9738;51.654;14.238;2022-09-12T06:46:03;7.43;;;4.47;;
19209;SDS011;9738;51.654;14.238;2022-09-12T06:48:29;6.27;;;4.93;;
19209;SDS011;9738;51.654;14.238;2022-09-12T06:51:00;5.13;;;4.43;;
19209;SDS011;9738;51.654;14.238;2022-09-12T06:53:27;4.47;;;3.97;;
19209;SDS011;9738;51.654;14.238;2022-09-12T06:56:01;6.00;;;4.77;;
19209;SDS011;9738;51.654;14.238;2022-09-12T06:58:30;11.17;;;5.53;;
19209;SDS011;9738;51.654;14.238;2022-09-12T07:01:06;9.47;;;6.63;;
19209;SDS011;9738;51.654;14.238;2022-09-12T07:03:46;8.03;;;5.57;;
19209;SDS011;9738;51.654;14.238;2022-09-12T07:06:14;9.60;;;5.50;;
19209;SDS011;9738;51.654;14.238;2022-09-12T07:08:41;8.07;;;5.10;;
19209;SDS011;9738;51.654;14.238;2022-09-12T07:13:41;6.33;;;4.73;;
19209;SDS011;9738;51.654;14.238;2022-09-12T07:16:09;6.80;;;4.17;;
19209;SDS011;9738;51.654;14.238;2022-09-12T07:18:36;6.60;;;5.07;;
19209;SDS011;9738;51.654;14.238;2022-09-12T07:21:04;7.87;;;4.00;;
19209;SDS011;9738;51.654;14.238;2022-09-12T07:23:32;7.00;;;4.60;;
19209;SDS011;9738;51.654;14.238;2022-09-12T07:26:00;6.73;;;4.30;;
19209;SDS011;9738;51.654;14.238;2022-09-12T07:28:27;5.77;;;4.23;;
19209;SDS011;9738;51.654;14.238;2022-09-12T07:30:55;11.40;;;4.73;;
19209;SDS011;9738;51.654;14.238;2022-09-12T07:33:27;6.40;;;4.43;;
19209;SDS011;9738;51.654;14.238;2022-09-12T07:35:53;6.00;;;4.20;;
19209;SDS011;9738;51.654;14.238;2022-09-12T07:38:20;7.33;;;4.50;;
19209;SDS011;9738;51.654;14.238;2022-09-12T07:40:46;6.60;;;4.40;;
19209;SDS011;9738;51.654;14.238;2022-09-12T07:43:12;6.00;;;4.60;;
19209;SDS011;9738;51.654;14.238;2022-09-12T07:45:38;8.07;;;4.87;;
19209;SDS011;9738;51.654;14.238;2022-09-12T07:48:06;4.67;;;3.93;;
19209;SDS011;9738;51.654;14.238;2022-09-12T07:50:33;4.47;;;3.53;;
19209;SDS011;9738;51.654;14.238;2022-09-12T07:52:59;7.43;;;3.80;;
19209;SDS011;9738;51.654;14.238;2022-09-12T07:55:27;6.23;;;3.57;;
19209;SDS011;9738;51.654;14.238;2022-09-12T07:57:52;3.67;;;3.33;;
19209;SDS011;9738;51.654;14.238;2022-09-12T08:00:19;7.53;;;4.40;;
19209;SDS011;9738;51.654;14.238;2022-09-12T08:02:48;4.50;;;3.20;;
19209;SDS011;9738;51.654;14.238;2022-09-12T08:05:15;3.40;;;2.70;;
19209;SDS011;9738;51.654;14.238;2022-09-12T08:07:41;5.20;;;3.37;;
19209;SDS011;9738;51.654;14.238;2022-09-12T08:10:07;2.63;;;1.97;;
19209;SDS011;9738;51.654;14.238;2022-09-12T08:12:33;3.27;;;1.87;;
19209;SDS011;9738;51.654;14.238;2022-09-12T08:14:59;2.00;;;1.70;;
19209;SDS011;9738;51.654;14.238;2022-09-12T08:17:25;1.73;;;1.60;;
19209;SDS011;9738;51.654;14.238;2022-09-12T08:19:51;2.57;;;1.63;;
19209;SDS011;9738;51.654;14.238;2022-09-12T08:22:17;2.07;;;1.70;;
19209;SDS011;9738;51.654;14.238;2022-09-12T08:24:46;1.70;;;1.50;;
19209;SDS011;9738;51.654;14.238;2022-09-12T08:27:13;1.17;;;1.07;;
19209;SDS011;9738;51.654;14.238;2022-09-12T08:29:40;1.40;;;1.30;;
19209;SDS011;9738;51.654;14.238;2022-09-12T08:32:06;1.47;;;1.20;;
19209;SDS011;9738;51.654;14.238;2022-09-12T08:34:32;1.33;;;1.23;;
19209;SDS011;9738;51.654;14.238;2022-09-12T08:36:59;0.93;;;0.90;;
19209;SDS011;9738;51.654;14.238;2022-09-12T08:39:24;1.50;;;1.40;;
19209;SDS011;9738;51.654;14.238;2022-09-12T08:41:55;1.90;;;1.50;;
19209;SDS011;9738;51.654;14.238;2022-09-12T08:44:29;2.70;;;1.40;;
19209;SDS011;9738;51.654;14.238;2022-09-12T08:47:27;1.40;;;1.30;;
19209;SDS011;9738;51.654;14.238;2022-09-12T08:55:31;2.47;;;1.40;;
19209;SDS011;9738;51.654;14.238;2022-09-12T08:58:00;2.20;;;1.90;;
19209;SDS011;9738;51.654;14.238;2022-09-12T09:00:37;1.93;;;1.83;;
19209;SDS011;9738;51.654;14.238;2022-09-12T09:03:23;2.30;;;2.10;;
19209;SDS011;9738;51.654;14.238;2022-09-12T09:06:17;2.70;;;2.40;;
19209;SDS011;9738;51.654;14.238;2022-09-12T09:11:59;1.67;;;1.53;;
19209;SDS011;9738;51.654;14.238;2022-09-12T09:22:49;1.07;;;0.97;;
19209;SDS011;9738;51.654;14.238;2022-09-12T09:25:32;1.93;;;1.40;;
19209;SDS011;9738;51.654;14.238;2022-09-12T09:28:01;1.67;;;1.50;;
19209;SDS011;9738;51.654;14.238;2022-09-12T09:30:31;1.50;;;1.40;;
19209;SDS011;9738;51.654;14.238;2022-09-12T09:33:00;1.70;;;1.23;;
19209;SDS011;9738;51.654;14.238;2022-09-12T09:35:44;1.17;;;1.10;;
19209;SDS011;9738;51.654;14.238;2022-09-12T09:38:17;1.00;;;1.00;;
19209;SDS011;9738;51.654;14.238;2022-09-12T09:40:59;1.30;;;1.20;;
19209;SDS011;9738;51.654;14.238;2022-09-12T09:43:36;1.00;;;1.00;;
19209;SDS011;9738;51.654;14.238;2022-09-12T09:46:03;1.30;;;1.20;;
19209;SDS011;9738;51.654;14.238;2022-09-12T09:48:30;1.30;;;1.20;;
19209;SDS011;9738;51.654;14.238;2022-09-12T09:50:58;1.70;;;1.60;;
19209;SDS011;9738;51.654;14.238;2022-09-12T09:56:14;1.50;;;1.40;;
19209;SDS011;9738;51.654;14.238;2022-09-12T09:59:14;1.37;;;1.27;;
19209;SDS011;9738;51.654;14.238;2022-09-12T10:02:34;1.87;;;1.30;;
19209;SDS011;9738;51.654;14.238;2022-09-12T10:04:56;1.60;;;1.23;;
19209;SDS011;9738;51.654;14.238;2022-09-12T10:07:24;1.30;;;1.20;;
19209;SDS011;9738;51.654;14.238;2022-09-12T10:12:32;3.17;;;1.10;;
19209;SDS011;9738;51.654;14.238;2022-09-12T10:15:02;0.90;;;0.90;;
19209;SDS011;9738;51.654;14.238;2022-09-12T10:17:44;1.30;;;1.20;;
19209;SDS011;9738;51.654;14.238;2022-09-12T10:20:30;3.50;;;1.30;;
19209;SDS011;9738;51.654;14.238;2022-09-12T10:22:58;1.50;;;1.40;;
19209;SDS011;9738;51.654;14.238;2022-09-12T10:25:25;1.30;;;1.20;;
19209;SDS011;9738;51.654;14.238;2022-09-12T10:27:53;1.47;;;1.03;;
19209;SDS011;9738;51.654;14.238;2022-09-12T10:30:22;1.40;;;1.30;;
19209;SDS011;9738;51.654;14.238;2022-09-12T10:32:50;2.00;;;1.60;;
19209;SDS011;9738;51.654;14.238;2022-09-12T10:38:00;1.50;;;1.07;;
19209;SDS011;9738;51.654;14.238;2022-09-12T10:40:29;1.27;;;1.17;;
19209;SDS011;9738;51.654;14.238;2022-09-12T10:43:01;1.33;;;1.23;;
19209;SDS011;9738;51.654;14.238;2022-09-12T10:45:40;1.50;;;1.00;;
19209;SDS011;9738;51.654;14.238;2022-09-12T10:50:56;1.33;;;1.23;;
19209;SDS011;9738;51.654;14.238;2022-09-12T10:53:27;1.30;;;1.00;;
19209;SDS011;9738;51.654;14.238;2022-09-12T11:10:16;1.10;;;1.00;;
19209;SDS011;9738;51.654;14.238;2022-09-12T11:15:56;1.20;;;1.10;;
19209;SDS011;9738;51.654;14.238;2022-09-12T11:18:45;1.10;;;1.00;;
19209;SDS011;9738;51.654;14.238;2022-09-12T11:21:20;1.10;;;1.00;;
19209;SDS011;9738;51.654;14.238;2022-09-12T11:27:07;1.10;;;1.00;;
19209;SDS011;9738;51.654;14.238;2022-09-12T11:29:48;0.90;;;0.90;;
19209;SDS011;9738;51.654;14.238;2022-09-12T11:35:22;0.67;;;0.67;;
19209;SDS011;9738;51.654;14.238;2022-09-12T11:51:33;0.80;;;0.77;;
19209;SDS011;9738;51.654;14.238;2022-09-12T11:56:52;1.83;;;0.90;;
19209;SDS011;9738;51.654;14.238;2022-09-12T12:02:02;0.73;;;0.73;;
19209;SDS011;9738;51.654;14.238;2022-09-12T12:04:31;0.70;;;0.70;;
19209;SDS011;9738;51.654;14.238;2022-09-12T12:07:04;0.50;;;0.50;;
19209;SDS011;9738;51.654;14.238;2022-09-12T12:09:33;1.00;;;1.00;;
19209;SDS011;9738;51.654;14.238;2022-09-12T12:12:00;1.30;;;1.20;;
19209;SDS011;9738;51.654;14.238;2022-09-12T12:17:16;0.80;;;0.80;;
19209;SDS011;9738;51.654;14.238;2022-09-12T12:19:45;0.80;;;0.80;;
19209;SDS011;9738;51.654;14.238;2022-09-12T12:22:19;0.97;;;0.80;;
19209;SDS011;9738;51.654;14.238;2022-09-12T12:24:57;0.87;;;0.87;;
19209;SDS011;9738;51.654;14.238;2022-09-12T12:32:58;1.60;;;0.90;;
19209;SDS011;9738;51.654;14.238;2022-09-12T12:38:01;0.80;;;0.77;;
19209;SDS011;9738;51.654;14.238;2022-09-12T12:40:29;2.47;;;1.10;;
19209;SDS011;9738;51.654;14.238;2022-09-12T12:42:57;1.63;;;1.13;;
19209;SDS011;9738;51.654;14.238;2022-09-12T12:47:55;0.87;;;0.87;;
19209;SDS011;9738;51.654;14.238;2022-09-12T12:50:27;1.20;;;1.00;;
19209;SDS011;9738;51.654;14.238;2022-09-12T12:58:18;1.10;;;1.00;;
19209;SDS011;9738;51.654;14.238;2022-09-12T13:01:02;1.00;;;0.90;;
19209;SDS011;9738;51.654;14.238;2022-09-12T13:03:34;0.80;;;0.80;;
19209;SDS011;9738;51.654;14.238;2022-09-12T13:06:04;0.90;;;0.90;;
19209;SDS011;9738;51.654;14.238;2022-09-12T13:08:34;0.80;;;0.80;;
19209;SDS011;9738;51.654;14.238;2022-09-12T13:13:44;0.93;;;0.93;;
19209;SDS011;9738;51.654;14.238;2022-09-12T13:16:31;1.23;;;0.97;;
19209;SDS011;9738;51.654;14.238;2022-09-12T13:19:12;1.60;;;0.70;;
19209;SDS011;9738;51.654;14.238;2022-09-12T13:22:03;0.80;;;0.80;;
19209;SDS011;9738;51.654;14.238;2022-09-12T13:24:31;0.80;;;0.80;;
19209;SDS011;9738;51.654;14.238;2022-09-12T13:26:58;0.57;;;0.57;;
19209;SDS011;9738;51.654;14.238;2022-09-12T13:29:26;0.97;;;0.93;;
19209;SDS011;9738;51.654;14.238;2022-09-12T13:31:53;0.77;;;0.70;;
19209;SDS011;9738;51.654;14.238;2022-09-12T13:34:27;1.50;;;0.90;;
19209;SDS011;9738;51.654;14.238;2022-09-12T13:39:45;1.13;;;1.00;;
19209;SDS011;9738;51.654;14.238;2022-09-12T13:42:45;0.73;;;0.73;;
19209;SDS011;9738;51.654;14.238;2022-09-12T13:47:46;0.93;;;0.87;;
19209;SDS011;9738;51.654;14.238;2022-09-12T13:50:27;1.00;;;1.00;;
19209;SDS011;9738;51.654;14.238;2022-09-12T13:52:58;1.10;;;1.00;;
19209;SDS011;9738;51.654;14.238;2022-09-12T13:55:28;2.03;;;1.30;;
19209;SDS011;9738;51.654;14.238;2022-09-12T13:57:57;1.00;;;1.00;;
19209;SDS011;9738;51.654;14.238;2022-09-12T14:00:25;0.73;;;0.73;;
19209;SDS011;9738;51.654;14.238;2022-09-12T14:02:53;0.83;;;0.83;;
19209;SDS011;9738;51.654;14.238;2022-09-12T14:05:39;0.73;;;0.73;;
19209;SDS011;9738;51.654;14.238;2022-09-12T14:08:08;0.70;;;0.70;;
19209;SDS011;9738;51.654;14.238;2022-09-12T14:10:38;0.73;;;0.73;;
19209;SDS011;9738;51.654;14.238;2022-09-12T14:13:10;1.10;;;1.00;;
19209;SDS011;9738;51.654;14.238;2022-09-12T14:15:43;1.20;;;1.10;;
19209;SDS011;9738;51.654;14.238;2022-09-12T14:18:27;0.73;;;0.73;;
19209;SDS011;9738;51.654;14.238;2022-09-12T14:21:08;0.80;;;0.80;;
19209;SDS011;9738;51.654;14.238;2022-09-12T14:23:36;1.07;;;0.97;;
19209;SDS011;9738;51.654;14.238;2022-09-12T14:26:08;0.80;;;0.80;;
19209;SDS011;9738;51.654;14.238;2022-09-12T14:28:40;0.80;;;0.80;;
19209;SDS011;9738;51.654;14.238;2022-09-12T14:38:43;2.20;;;1.87;;
19209;SDS011;9738;51.654;14.238;2022-09-12T14:41:11;1.40;;;1.30;;
19209;SDS011;9738;51.654;14.238;2022-09-12T14:43:45;0.90;;;0.90;;
19209;SDS011;9738;51.654;14.238;2022-09-12T14:46:27;1.30;;;1.00;;
19209;SDS011;9738;51.654;14.238;2022-09-12T14:48:59;2.20;;;1.00;;
19209;SDS011;9738;51.654;14.238;2022-09-12T14:51:33;1.03;;;1.03;;
19209;SDS011;9738;51.654;14.238;2022-09-12T14:54:03;1.17;;;1.10;;
19209;SDS011;9738;51.654;14.238;2022-09-12T14:56:39;1.07;;;1.00;;
19209;SDS011;9738;51.654;14.238;2022-09-12T15:04:49;0.73;;;0.73;;
19209;SDS011;9738;51.654;14.238;2022-09-12T15:10:48;0.70;;;0.70;;
19209;SDS011;9738;51.654;14.238;2022-09-12T15:15:30;0.73;;;0.73;;
19209;SDS011;9738;51.654;14.238;2022-09-12T15:17:57;1.43;;;1.10;;
19209;SDS011;9738;51.654;14.238;2022-09-12T15:20:23;0.70;;;0.70;;
19209;SDS011;9738;51.654;14.238;2022-09-12T15:22:49;1.07;;;1.07;;
19209;SDS011;9738;51.654;14.238;2022-09-12T15:25:16;1.37;;;0.90;;
19209;SDS011;9738;51.654;14.238;2022-09-12T15:27:42;0.93;;;0.93;;
19209;SDS011;9738;51.654;14.238;2022-09-12T15:30:11;0.90;;;0.90;;
19209;SDS011;9738;51.654;14.238;2022-09-12T15:32:38;0.80;;;0.80;;
19209;SDS011;9738;51.654;14.238;2022-09-12T15:37:40;0.90;;;0.90;;
19209;SDS011;9738;51.654;14.238;2022-09-12T15:40:06;1.03;;;0.90;;
19209;SDS011;9738;51.654;14.238;2022-09-12T15:42:33;1.00;;;0.90;;
19209;SDS011;9738;51.654;14.238;2022-09-12T15:45:00;0.97;;;0.93;;
19209;SDS011;9738;51.654;14.238;2022-09-12T15:47:25;0.77;;;0.77;;
19209;SDS011;9738;51.654;14.238;2022-09-12T15:49:51;0.77;;;0.77;;
19209;SDS011;9738;51.654;14.238;2022-09-12T15:52:18;0.87;;;0.83;;
19209;SDS011;9738;51.654;14.238;2022-09-12T15:54:43;0.83;;;0.83;;
19209;SDS011;9738;51.654;14.238;2022-09-12T15:57:09;1.00;;;0.90;;
19209;SDS011;9738;51.654;14.238;2022-09-12T15:59:35;0.67;;;0.67;;
19209;SDS011;9738;51.654;14.238;2022-09-12T16:02:01;0.90;;;0.90;;
19209;SDS011;9738;51.654;14.238;2022-09-12T16:04:27;0.67;;;0.67;;
19209;SDS011;9738;51.654;14.238;2022-09-12T16:06:55;1.53;;;1.10;;
19209;SDS011;9738;51.654;14.238;2022-09-12T16:09:21;0.70;;;0.70;;
19209;SDS011;9738;51.654;14.238;2022-09-12T16:11:47;1.03;;;0.90;;
19209;SDS011;9738;51.654;14.238;2022-09-12T16:14:15;1.00;;;0.97;;
19209;SDS011;9738;51.654;14.238;2022-09-12T16:16:42;1.27;;;0.90;;
19209;SDS011;9738;51.654;14.238;2022-09-12T16:19:09;1.07;;;1.00;;
19209;SDS011;9738;51.654;14.238;2022-09-12T16:21:37;1.10;;;0.87;;
19209;SDS011;9738;51.654;14.238;2022-09-12T16:24:03;0.83;;;0.80;;
19209;SDS011;9738;51.654;14.238;2022-09-12T16:26:29;1.10;;;1.00;;
19209;SDS011;9738;51.654;14.238;2022-09-12T16:28:56;0.60;;;0.60;;
19209;SDS011;9738;51.654;14.238;2022-09-12T16:31:23;1.10;;;1.00;;
19209;SDS011;9738;51.654;14.238;2022-09-12T16:33:49;1.13;;;1.10;;
19209;SDS011;9738;51.654;14.238;2022-09-12T16:36:17;1.17;;;1.07;;
19209;SDS011;9738;51.654;14.238;2022-09-12T16:38:45;1.43;;;1.00;;
19209;SDS011;9738;51.654;14.238;2022-09-12T16:41:12;0.67;;;0.67;;
19209;SDS011;9738;51.654;14.238;2022-09-12T16:43:39;1.20;;;1.10;;
19209;SDS011;9738;51.654;14.238;2022-09-12T16:46:06;2.17;;;1.03;;
19209;SDS011;9738;51.654;14.238;2022-09-12T16:48:34;1.10;;;1.00;;
19209;SDS011;9738;51.654;14.238;2022-09-12T16:51:02;0.90;;;0.90;;
19209;SDS011;9738;51.654;14.238;2022-09-12T16:53:32;0.90;;;0.90;;
19209;SDS011;9738;51.654;14.238;2022-09-12T16:55:59;0.90;;;0.90;;
19209;SDS011;9738;51.654;14.238;2022-09-12T16:58:26;2.70;;;0.83;;
19209;SDS011;9738;51.654;14.238;2022-09-12T17:01:05;1.20;;;1.10;;
19209;SDS011;9738;51.654;14.238;2022-09-12T17:03:33;1.00;;;1.00;;
19209;SDS011;9738;51.654;14.238;2022-09-12T17:06:06;1.20;;;1.10;;
19209;SDS011;9738;51.654;14.238;2022-09-12T17:08:35;1.33;;;1.00;;
19209;SDS011;9738;51.654;14.238;2022-09-12T17:11:09;1.20;;;1.10;;
19209;SDS011;9738;51.654;14.238;2022-09-12T17:13:37;1.20;;;0.90;;
19209;SDS011;9738;51.654;14.238;2022-09-12T17:16:06;1.00;;;1.00;;
19209;SDS011;9738;51.654;14.238;2022-09-12T17:18:35;0.80;;;0.80;;
19209;SDS011;9738;51.654;14.238;2022-09-12T17:21:03;1.13;;;1.03;;
19209;SDS011;9738;51.654;14.238;2022-09-12T17:23:30;1.30;;;1.20;;
19209;SDS011;9738;51.654;14.238;2022-09-12T17:25:57;0.90;;;0.80;;
19209;SDS011;9738;51.654;14.238;2022-09-12T17:28:23;2.03;;;1.60;;
19209;SDS011;9738;51.654;14.238;2022-09-12T17:30:59;0.97;;;0.97;;
19209;SDS011;9738;51.654;14.238;2022-09-12T17:33:27;1.20;;;1.10;;
19209;SDS011;9738;51.654;14.238;2022-09-12T17:35:54;0.93;;;0.93;;
19209;SDS011;9738;51.654;14.238;2022-09-12T17:38:24;1.30;;;1.20;;
19209;SDS011;9738;51.654;14.238;2022-09-12T17:40:51;1.00;;;0.90;;
19209;SDS011;9738;51.654;14.238;2022-09-12T17:43:16;0.90;;;0.90;;
19209;SDS011;9738;51.654;14.238;2022-09-12T17:45:42;2.10;;;0.93;;